sensor_id;sensor_type;location;lat;lon;timestamp;P1;durP1;ratioP1;P2;durP2;ratioP2
21837;SDS011;11081;45.946;6.140;2023-07-20T00:00:01;4.75;;;2.85;;
21837;SDS011;11081;45.946;6.140;2023-07-20T00:02:39;3.97;;;2.50;;
21837;SDS011;11081;45.946;6.140;2023-07-20T00:05:08;6.80;;;2.53;;
21837;SDS011;11081;45.946;6.140;2023-07-20T00:07:36;5.78;;;2.95;;
21837;SDS011;11081;45.946;6.140;2023-07-20T00:10:04;4.90;;;2.67;;
21837;SDS011;11081;45.946;6.140;2023-07-20T00:12:33;7.93;;;3.03;;
21837;SDS011;11081;45.946;6.140;2023-07-20T00:15:01;4.25;;;2.50;;
21837;SDS011;11081;45.946;6.140;2023-07-20T00:17:29;8.35;;;2.72;;
21837;SDS011;11081;45.946;6.140;2023-07-20T00:19:58;5.40;;;2.35;;
21837;SDS011;11081;45.946;6.140;2023-07-20T00:22:26;6.43;;;2.88;;
21837;SDS011;11081;45.946;6.140;2023-07-20T00:24:55;7.05;;;3.10;;
21837;SDS011;11081;45.946;6.140;2023-07-20T00:27:23;8.38;;;2.80;;
21837;SDS011;11081;45.946;6.140;2023-07-20T00:29:51;5.78;;;2.75;;
21837;SDS011;11081;45.946;6.140;2023-07-20T00:32:19;4.80;;;2.50;;
21837;SDS011;11081;45.946;6.140;2023-07-20T00:34:48;5.20;;;2.70;;
21837;SDS011;11081;45.946;6.140;2023-07-20T00:37:18;5.50;;;2.92;;
21837;SDS011;11081;45.946;6.140;2023-07-20T00:39:46;5.68;;;2.95;;
21837;SDS011;11081;45.946;6.140;2023-07-20T00:42:14;5.00;;;2.78;;
21837;SDS011;11081;45.946;6.140;2023-07-20T00:44:43;7.22;;;3.05;;
21837;SDS011;11081;45.946;6.140;2023-07-20T00:47:12;6.95;;;2.92;;
21837;SDS011;11081;45.946;6.140;2023-07-20T00:49:40;4.80;;;2.95;;
21837;SDS011;11081;45.946;6.140;2023-07-20T00:52:08;6.03;;;2.92;;
21837;SDS011;11081;45.946;6.140;2023-07-20T00:54:43;5.82;;;2.97;;
21837;SDS011;11081;45.946;6.140;2023-07-20T00:57:12;5.53;;;2.83;;
21837;SDS011;11081;45.946;6.140;2023-07-20T00:59:41;7.47;;;2.70;;
21837;SDS011;11081;45.946;6.140;2023-07-20T01:02:09;5.90;;;2.90;;
21837;SDS011;11081;45.946;6.140;2023-07-20T01:04:39;6.68;;;3.50;;
21837;SDS011;11081;45.946;6.140;2023-07-20T01:07:10;4.47;;;2.70;;
21837;SDS011;11081;45.946;6.140;2023-07-20T01:09:44;5.47;;;2.97;;
21837;SDS011;11081;45.946;6.140;2023-07-20T01:12:18;5.93;;;3.20;;
21837;SDS011;11081;45.946;6.140;2023-07-20T01:14:54;8.00;;;3.55;;
21837;SDS011;11081;45.946;6.140;2023-07-20T01:17:22;4.80;;;3.05;;
21837;SDS011;11081;45.946;6.140;2023-07-20T01:19:51;4.20;;;2.85;;
21837;SDS011;11081;45.946;6.140;2023-07-20T01:22:21;4.70;;;2.72;;
21837;SDS011;11081;45.946;6.140;2023-07-20T01:25:08;6.18;;;3.28;;
21837;SDS011;11081;45.946;6.140;2023-07-20T01:27:58;3.47;;;2.67;;
21837;SDS011;11081;45.946;6.140;2023-07-20T01:30:50;10.27;;;2.95;;
21837;SDS011;11081;45.946;6.140;2023-07-20T01:33:24;3.88;;;2.90;;
21837;SDS011;11081;45.946;6.140;2023-07-20T01:35:54;4.82;;;2.95;;
21837;SDS011;11081;45.946;6.140;2023-07-20T01:38:25;5.15;;;3.10;;
21837;SDS011;11081;45.946;6.140;2023-07-20T01:40:53;5.20;;;3.00;;
21837;SDS011;11081;45.946;6.140;2023-07-20T01:43:23;8.00;;;2.70;;
21837;SDS011;11081;45.946;6.140;2023-07-20T01:45:51;5.75;;;3.15;;
21837;SDS011;11081;45.946;6.140;2023-07-20T01:48:19;6.10;;;3.35;;
21837;SDS011;11081;45.946;6.140;2023-07-20T01:50:49;4.28;;;2.30;;
21837;SDS011;11081;45.946;6.140;2023-07-20T01:53:17;8.55;;;2.72;;
21837;SDS011;11081;45.946;6.140;2023-07-20T01:55:47;5.60;;;2.83;;
21837;SDS011;11081;45.946;6.140;2023-07-20T01:58:15;6.00;;;2.75;;
21837;SDS011;11081;45.946;6.140;2023-07-20T02:00:43;6.15;;;3.15;;
21837;SDS011;11081;45.946;6.140;2023-07-20T02:03:11;7.10;;;2.65;;
21837;SDS011;11081;45.946;6.140;2023-07-20T02:05:39;5.50;;;3.38;;
21837;SDS011;11081;45.946;6.140;2023-07-20T02:08:10;4.13;;;3.08;;
21837;SDS011;11081;45.946;6.140;2023-07-20T02:10:38;5.55;;;2.72;;
21837;SDS011;11081;45.946;6.140;2023-07-20T02:13:06;4.80;;;3.28;;
21837;SDS011;11081;45.946;6.140;2023-07-20T02:15:34;5.32;;;3.28;;
21837;SDS011;11081;45.946;6.140;2023-07-20T02:18:03;4.78;;;2.72;;
21837;SDS011;11081;45.946;6.140;2023-07-20T02:20:33;4.45;;;3.08;;
21837;SDS011;11081;45.946;6.140;2023-07-20T02:23:01;5.72;;;2.72;;
21837;SDS011;11081;45.946;6.140;2023-07-20T02:25:31;4.88;;;3.00;;
21837;SDS011;11081;45.946;6.140;2023-07-20T02:27:59;4.80;;;2.83;;
21837;SDS011;11081;45.946;6.140;2023-07-20T02:30:27;5.10;;;2.78;;
21837;SDS011;11081;45.946;6.140;2023-07-20T02:32:55;5.78;;;2.83;;
21837;SDS011;11081;45.946;6.140;2023-07-20T02:35:25;7.15;;;3.25;;
21837;SDS011;11081;45.946;6.140;2023-07-20T02:37:53;7.15;;;3.15;;
21837;SDS011;11081;45.946;6.140;2023-07-20T02:40:21;4.95;;;2.65;;
21837;SDS011;11081;45.946;6.140;2023-07-20T02:42:51;4.68;;;2.60;;
21837;SDS011;11081;45.946;6.140;2023-07-20T02:45:19;4.90;;;2.63;;
21837;SDS011;11081;45.946;6.140;2023-07-20T02:47:47;6.75;;;3.08;;
21837;SDS011;11081;45.946;6.140;2023-07-20T02:50:15;6.35;;;3.00;;
21837;SDS011;11081;45.946;6.140;2023-07-20T02:52:43;5.70;;;2.72;;
21837;SDS011;11081;45.946;6.140;2023-07-20T02:55:12;6.38;;;3.00;;
21837;SDS011;11081;45.946;6.140;2023-07-20T02:57:39;4.60;;;2.75;;
21837;SDS011;11081;45.946;6.140;2023-07-20T03:00:10;4.90;;;2.80;;
21837;SDS011;11081;45.946;6.140;2023-07-20T03:02:42;8.45;;;3.35;;
21837;SDS011;11081;45.946;6.140;2023-07-20T03:05:11;5.18;;;2.95;;
21837;SDS011;11081;45.946;6.140;2023-07-20T03:07:39;8.45;;;2.90;;
21837;SDS011;11081;45.946;6.140;2023-07-20T03:10:10;6.45;;;2.80;;
21837;SDS011;11081;45.946;6.140;2023-07-20T03:12:38;6.60;;;3.10;;
21837;SDS011;11081;45.946;6.140;2023-07-20T03:15:07;5.10;;;2.78;;
21837;SDS011;11081;45.946;6.140;2023-07-20T03:17:37;5.07;;;3.10;;
21837;SDS011;11081;45.946;6.140;2023-07-20T03:20:06;5.55;;;2.90;;
21837;SDS011;11081;45.946;6.140;2023-07-20T03:22:36;6.28;;;3.05;;
21837;SDS011;11081;45.946;6.140;2023-07-20T03:25:05;4.47;;;2.80;;
21837;SDS011;11081;45.946;6.140;2023-07-20T03:27:33;5.30;;;2.90;;
21837;SDS011;11081;45.946;6.140;2023-07-20T03:30:01;5.00;;;2.75;;
21837;SDS011;11081;45.946;6.140;2023-07-20T03:32:30;3.88;;;2.92;;
21837;SDS011;11081;45.946;6.140;2023-07-20T03:35:01;7.32;;;3.50;;
21837;SDS011;11081;45.946;6.140;2023-07-20T03:37:30;3.42;;;2.30;;
21837;SDS011;11081;45.946;6.140;2023-07-20T03:39:58;5.38;;;2.92;;
21837;SDS011;11081;45.946;6.140;2023-07-20T03:42:26;4.13;;;2.60;;
21837;SDS011;11081;45.946;6.140;2023-07-20T03:44:54;5.00;;;3.22;;
21837;SDS011;11081;45.946;6.140;2023-07-20T03:47:22;7.65;;;3.38;;
21837;SDS011;11081;45.946;6.140;2023-07-20T03:49:51;4.95;;;2.92;;
21837;SDS011;11081;45.946;6.140;2023-07-20T03:52:20;6.80;;;3.08;;
21837;SDS011;11081;45.946;6.140;2023-07-20T03:54:49;4.85;;;2.78;;
21837;SDS011;11081;45.946;6.140;2023-07-20T03:57:18;4.78;;;2.75;;
21837;SDS011;11081;45.946;6.140;2023-07-20T03:59:45;4.97;;;3.15;;
21837;SDS011;11081;45.946;6.140;2023-07-20T04:02:14;5.68;;;2.83;;
21837;SDS011;11081;45.946;6.140;2023-07-20T04:04:42;7.22;;;3.08;;
21837;SDS011;11081;45.946;6.140;2023-07-20T04:07:10;4.60;;;2.65;;
21837;SDS011;11081;45.946;6.140;2023-07-20T04:09:42;4.68;;;3.33;;
21837;SDS011;11081;45.946;6.140;2023-07-20T04:12:10;6.95;;;2.92;;
21837;SDS011;11081;45.946;6.140;2023-07-20T04:14:38;6.43;;;3.15;;
21837;SDS011;11081;45.946;6.140;2023-07-20T04:17:06;6.88;;;3.13;;
21837;SDS011;11081;45.946;6.140;2023-07-20T04:19:34;4.65;;;3.15;;
21837;SDS011;11081;45.946;6.140;2023-07-20T04:22:02;5.78;;;3.38;;
21837;SDS011;11081;45.946;6.140;2023-07-20T04:24:31;5.30;;;3.13;;
21837;SDS011;11081;45.946;6.140;2023-07-20T04:27:01;5.32;;;2.92;;
21837;SDS011;11081;45.946;6.140;2023-07-20T04:29:29;7.38;;;3.22;;
21837;SDS011;11081;45.946;6.140;2023-07-20T04:31:57;4.75;;;2.72;;
21837;SDS011;11081;45.946;6.140;2023-07-20T04:34:25;6.72;;;2.85;;
21837;SDS011;11081;45.946;6.140;2023-07-20T04:36:53;5.55;;;3.15;;
21837;SDS011;11081;45.946;6.140;2023-07-20T04:39:22;3.72;;;2.90;;
21837;SDS011;11081;45.946;6.140;2023-07-20T04:42:04;9.70;;;3.33;;
21837;SDS011;11081;45.946;6.140;2023-07-20T04:44:32;4.72;;;3.05;;
21837;SDS011;11081;45.946;6.140;2023-07-20T04:47:01;5.47;;;3.17;;
21837;SDS011;11081;45.946;6.140;2023-07-20T04:49:33;5.57;;;3.42;;
21837;SDS011;11081;45.946;6.140;2023-07-20T04:52:01;6.30;;;2.58;;
21837;SDS011;11081;45.946;6.140;2023-07-20T04:54:31;3.40;;;2.70;;
21837;SDS011;11081;45.946;6.140;2023-07-20T04:56:59;5.68;;;2.95;;
21837;SDS011;11081;45.946;6.140;2023-07-20T04:59:31;5.22;;;2.88;;
21837;SDS011;11081;45.946;6.140;2023-07-20T05:02:00;7.43;;;3.00;;
21837;SDS011;11081;45.946;6.140;2023-07-20T05:04:29;4.57;;;2.97;;
21837;SDS011;11081;45.946;6.140;2023-07-20T05:07:04;5.43;;;3.30;;
21837;SDS011;11081;45.946;6.140;2023-07-20T05:09:33;8.55;;;2.83;;
21837;SDS011;11081;45.946;6.140;2023-07-20T05:12:01;5.20;;;3.10;;
21837;SDS011;11081;45.946;6.140;2023-07-20T05:14:31;5.50;;;3.00;;
21837;SDS011;11081;45.946;6.140;2023-07-20T05:16:59;5.93;;;3.50;;
21837;SDS011;11081;45.946;6.140;2023-07-20T05:19:27;3.80;;;2.60;;
21837;SDS011;11081;45.946;6.140;2023-07-20T05:21:55;7.03;;;3.20;;
21837;SDS011;11081;45.946;6.140;2023-07-20T05:24:23;5.82;;;3.10;;
21837;SDS011;11081;45.946;6.140;2023-07-20T05:26:51;5.10;;;3.40;;
21837;SDS011;11081;45.946;6.140;2023-07-20T05:29:20;5.90;;;2.90;;
21837;SDS011;11081;45.946;6.140;2023-07-20T05:31:49;7.45;;;3.55;;
21837;SDS011;11081;45.946;6.140;2023-07-20T05:34:17;5.55;;;2.75;;
21837;SDS011;11081;45.946;6.140;2023-07-20T05:36:45;10.93;;;3.10;;
21837;SDS011;11081;45.946;6.140;2023-07-20T05:39:14;4.75;;;2.85;;
21837;SDS011;11081;45.946;6.140;2023-07-20T05:41:42;7.00;;;2.90;;
21837;SDS011;11081;45.946;6.140;2023-07-20T05:44:10;6.38;;;3.38;;
21837;SDS011;11081;45.946;6.140;2023-07-20T05:46:38;7.78;;;3.42;;
21837;SDS011;11081;45.946;6.140;2023-07-20T05:49:23;5.57;;;3.00;;
21837;SDS011;11081;45.946;6.140;2023-07-20T05:51:51;5.57;;;3.00;;
21837;SDS011;11081;45.946;6.140;2023-07-20T05:54:19;7.47;;;3.30;;
21837;SDS011;11081;45.946;6.140;2023-07-20T05:56:47;5.45;;;2.97;;
21837;SDS011;11081;45.946;6.140;2023-07-20T05:59:15;10.82;;;3.33;;
21837;SDS011;11081;45.946;6.140;2023-07-20T06:01:43;12.48;;;3.50;;
21837;SDS011;11081;45.946;6.140;2023-07-20T06:04:12;9.32;;;3.60;;
21837;SDS011;11081;45.946;6.140;2023-07-20T06:06:41;16.40;;;3.30;;
21837;SDS011;11081;45.946;6.140;2023-07-20T06:09:09;9.77;;;3.10;;
21837;SDS011;11081;45.946;6.140;2023-07-20T06:11:38;6.35;;;2.97;;
21837;SDS011;11081;45.946;6.140;2023-07-20T06:14:06;7.88;;;3.65;;
21837;SDS011;11081;45.946;6.140;2023-07-20T06:16:34;7.93;;;3.50;;
21837;SDS011;11081;45.946;6.140;2023-07-20T06:19:02;7.03;;;3.17;;
21837;SDS011;11081;45.946;6.140;2023-07-20T06:21:31;5.32;;;2.90;;
21837;SDS011;11081;45.946;6.140;2023-07-20T06:24:00;7.43;;;2.50;;
21837;SDS011;11081;45.946;6.140;2023-07-20T06:26:28;5.50;;;2.97;;
21837;SDS011;11081;45.946;6.140;2023-07-20T06:28:56;5.65;;;3.08;;
21837;SDS011;11081;45.946;6.140;2023-07-20T06:31:24;5.63;;;2.60;;
21837;SDS011;11081;45.946;6.140;2023-07-20T06:33:52;4.82;;;2.92;;
21837;SDS011;11081;45.946;6.140;2023-07-20T06:36:20;4.40;;;2.72;;
21837;SDS011;11081;45.946;6.140;2023-07-20T06:38:49;6.75;;;2.80;;
21837;SDS011;11081;45.946;6.140;2023-07-20T06:41:21;4.15;;;2.35;;
21837;SDS011;11081;45.946;6.140;2023-07-20T06:43:52;5.15;;;2.80;;
21837;SDS011;11081;45.946;6.140;2023-07-20T06:46:24;6.75;;;2.80;;
21837;SDS011;11081;45.946;6.140;2023-07-20T06:48:53;5.05;;;2.97;;
21837;SDS011;11081;45.946;6.140;2023-07-20T06:51:25;5.97;;;2.50;;
21837;SDS011;11081;45.946;6.140;2023-07-20T06:53:53;5.18;;;2.95;;
21837;SDS011;11081;45.946;6.140;2023-07-20T06:56:22;4.13;;;2.55;;
21837;SDS011;11081;45.946;6.140;2023-07-20T06:58:52;5.35;;;2.92;;
21837;SDS011;11081;45.946;6.140;2023-07-20T07:01:20;4.18;;;2.45;;
21837;SDS011;11081;45.946;6.140;2023-07-20T07:03:49;6.28;;;2.40;;
21837;SDS011;11081;45.946;6.140;2023-07-20T07:06:21;5.93;;;2.67;;
21837;SDS011;11081;45.946;6.140;2023-07-20T07:08:51;7.00;;;2.78;;
21837;SDS011;11081;45.946;6.140;2023-07-20T07:11:20;6.40;;;2.88;;
21837;SDS011;11081;45.946;6.140;2023-07-20T07:13:50;9.45;;;2.92;;
21837;SDS011;11081;45.946;6.140;2023-07-20T07:16:18;6.10;;;2.80;;
21837;SDS011;11081;45.946;6.140;2023-07-20T07:18:47;6.57;;;2.60;;
21837;SDS011;11081;45.946;6.140;2023-07-20T07:21:15;7.05;;;2.20;;
21837;SDS011;11081;45.946;6.140;2023-07-20T07:23:43;6.00;;;2.50;;
21837;SDS011;11081;45.946;6.140;2023-07-20T07:26:12;10.30;;;2.38;;
21837;SDS011;11081;45.946;6.140;2023-07-20T07:28:40;5.47;;;2.05;;
21837;SDS011;11081;45.946;6.140;2023-07-20T07:31:09;4.80;;;1.95;;
21837;SDS011;11081;45.946;6.140;2023-07-20T07:33:37;3.38;;;1.95;;
21837;SDS011;11081;45.946;6.140;2023-07-20T07:36:05;4.15;;;2.15;;
21837;SDS011;11081;45.946;6.140;2023-07-20T07:38:33;6.60;;;2.20;;
21837;SDS011;11081;45.946;6.140;2023-07-20T07:41:04;5.60;;;1.95;;
21837;SDS011;11081;45.946;6.140;2023-07-20T07:43:32;4.18;;;2.25;;
21837;SDS011;11081;45.946;6.140;2023-07-20T07:46:01;8.65;;;2.50;;
21837;SDS011;11081;45.946;6.140;2023-07-20T07:48:31;6.45;;;2.30;;
21837;SDS011;11081;45.946;6.140;2023-07-20T07:50:59;6.70;;;2.63;;
21837;SDS011;11081;45.946;6.140;2023-07-20T07:53:27;7.97;;;2.60;;
21837;SDS011;11081;45.946;6.140;2023-07-20T07:55:55;4.72;;;2.33;;
21837;SDS011;11081;45.946;6.140;2023-07-20T07:58:23;4.40;;;2.17;;
21837;SDS011;11081;45.946;6.140;2023-07-20T08:00:51;4.25;;;2.13;;
21837;SDS011;11081;45.946;6.140;2023-07-20T08:03:20;6.20;;;1.85;;
21837;SDS011;11081;45.946;6.140;2023-07-20T08:05:49;7.75;;;2.15;;
21837;SDS011;11081;45.946;6.140;2023-07-20T08:08:18;4.50;;;1.90;;
21837;SDS011;11081;45.946;6.140;2023-07-20T08:10:52;6.47;;;2.20;;
21837;SDS011;11081;45.946;6.140;2023-07-20T08:13:21;7.15;;;2.40;;
21837;SDS011;11081;45.946;6.140;2023-07-20T08:15:49;5.95;;;2.20;;
21837;SDS011;11081;45.946;6.140;2023-07-20T08:18:18;8.77;;;2.25;;
21837;SDS011;11081;45.946;6.140;2023-07-20T08:20:47;3.67;;;2.05;;
21837;SDS011;11081;45.946;6.140;2023-07-20T08:23:17;3.97;;;2.00;;
21837;SDS011;11081;45.946;6.140;2023-07-20T08:25:45;5.60;;;2.30;;
21837;SDS011;11081;45.946;6.140;2023-07-20T08:28:14;4.47;;;2.20;;
21837;SDS011;11081;45.946;6.140;2023-07-20T08:30:44;3.70;;;1.92;;
21837;SDS011;11081;45.946;6.140;2023-07-20T08:33:13;3.55;;;2.05;;
21837;SDS011;11081;45.946;6.140;2023-07-20T08:35:42;8.10;;;2.40;;
21837;SDS011;11081;45.946;6.140;2023-07-20T08:38:10;4.30;;;2.08;;
21837;SDS011;11081;45.946;6.140;2023-07-20T08:40:40;7.20;;;2.58;;
21837;SDS011;11081;45.946;6.140;2023-07-20T08:43:10;4.60;;;2.38;;
21837;SDS011;11081;45.946;6.140;2023-07-20T08:45:39;4.70;;;2.40;;
21837;SDS011;11081;45.946;6.140;2023-07-20T08:48:08;4.55;;;2.38;;
21837;SDS011;11081;45.946;6.140;2023-07-20T08:50:37;4.72;;;2.35;;
21837;SDS011;11081;45.946;6.140;2023-07-20T08:53:06;4.75;;;2.47;;
21837;SDS011;11081;45.946;6.140;2023-07-20T08:55:36;3.72;;;2.50;;
21837;SDS011;11081;45.946;6.140;2023-07-20T08:58:07;5.40;;;2.47;;
21837;SDS011;11081;45.946;6.140;2023-07-20T09:00:39;5.75;;;1.90;;
21837;SDS011;11081;45.946;6.140;2023-07-20T09:03:12;7.30;;;2.17;;
21837;SDS011;11081;45.946;6.140;2023-07-20T09:05:42;8.40;;;2.72;;
21837;SDS011;11081;45.946;6.140;2023-07-20T09:08:10;6.95;;;2.63;;
21837;SDS011;11081;45.946;6.140;2023-07-20T09:10:38;6.05;;;2.40;;
21837;SDS011;11081;45.946;6.140;2023-07-20T09:13:07;6.00;;;2.40;;
21837;SDS011;11081;45.946;6.140;2023-07-20T09:15:36;6.57;;;2.45;;
21837;SDS011;11081;45.946;6.140;2023-07-20T09:18:04;7.22;;;2.30;;
21837;SDS011;11081;45.946;6.140;2023-07-20T09:20:32;5.63;;;2.20;;
21837;SDS011;11081;45.946;6.140;2023-07-20T09:23:04;5.22;;;2.10;;
21837;SDS011;11081;45.946;6.140;2023-07-20T09:25:32;4.10;;;2.20;;
21837;SDS011;11081;45.946;6.140;2023-07-20T09:28:02;4.55;;;1.88;;
21837;SDS011;11081;45.946;6.140;2023-07-20T09:30:33;7.68;;;2.40;;
21837;SDS011;11081;45.946;6.140;2023-07-20T09:33:01;3.40;;;2.50;;
21837;SDS011;11081;45.946;6.140;2023-07-20T09:35:29;6.93;;;2.10;;
21837;SDS011;11081;45.946;6.140;2023-07-20T09:38:08;4.97;;;2.30;;
21837;SDS011;11081;45.946;6.140;2023-07-20T09:40:39;3.53;;;1.90;;
21837;SDS011;11081;45.946;6.140;2023-07-20T09:43:10;3.72;;;2.22;;
21837;SDS011;11081;45.946;6.140;2023-07-20T09:45:43;2.50;;;1.90;;
21837;SDS011;11081;45.946;6.140;2023-07-20T09:48:14;7.90;;;2.40;;
21837;SDS011;11081;45.946;6.140;2023-07-20T09:50:49;5.18;;;2.45;;
21837;SDS011;11081;45.946;6.140;2023-07-20T09:53:18;6.28;;;2.20;;
21837;SDS011;11081;45.946;6.140;2023-07-20T09:55:47;3.70;;;1.98;;
21837;SDS011;11081;45.946;6.140;2023-07-20T09:58:16;4.40;;;2.10;;
21837;SDS011;11081;45.946;6.140;2023-07-20T10:00:46;3.30;;;1.92;;
21837;SDS011;11081;45.946;6.140;2023-07-20T10:03:20;3.70;;;1.75;;
21837;SDS011;11081;45.946;6.140;2023-07-20T10:05:51;4.07;;;2.03;;
21837;SDS011;11081;45.946;6.140;2023-07-20T10:08:23;3.63;;;1.58;;
21837;SDS011;11081;45.946;6.140;2023-07-20T10:10:57;3.88;;;2.50;;
21837;SDS011;11081;45.946;6.140;2023-07-20T10:13:28;2.63;;;1.95;;
21837;SDS011;11081;45.946;6.140;2023-07-20T10:16:01;5.65;;;2.50;;
21837;SDS011;11081;45.946;6.140;2023-07-20T10:18:32;3.67;;;2.38;;
21837;SDS011;11081;45.946;6.140;2023-07-20T10:21:07;2.97;;;1.73;;
21837;SDS011;11081;45.946;6.140;2023-07-20T10:23:40;4.55;;;2.50;;
21837;SDS011;11081;45.946;6.140;2023-07-20T10:26:08;4.25;;;2.28;;
21837;SDS011;11081;45.946;6.140;2023-07-20T10:28:38;6.40;;;2.35;;
21837;SDS011;11081;45.946;6.140;2023-07-20T10:31:08;3.78;;;2.22;;
21837;SDS011;11081;45.946;6.140;2023-07-20T10:33:38;3.22;;;2.30;;
21837;SDS011;11081;45.946;6.140;2023-07-20T10:36:06;5.28;;;2.15;;
21837;SDS011;11081;45.946;6.140;2023-07-20T10:38:40;3.95;;;2.45;;
21837;SDS011;11081;45.946;6.140;2023-07-20T10:41:15;5.18;;;2.50;;
21837;SDS011;11081;45.946;6.140;2023-07-20T10:43:46;5.80;;;2.40;;
21837;SDS011;11081;45.946;6.140;2023-07-20T10:46:17;5.00;;;2.22;;
21837;SDS011;11081;45.946;6.140;2023-07-20T10:49:01;3.67;;;2.05;;
21837;SDS011;11081;45.946;6.140;2023-07-20T10:51:31;4.07;;;2.08;;
21837;SDS011;11081;45.946;6.140;2023-07-20T10:54:07;3.75;;;2.22;;
21837;SDS011;11081;45.946;6.140;2023-07-20T10:56:36;4.35;;;2.22;;
21837;SDS011;11081;45.946;6.140;2023-07-20T10:59:17;4.50;;;2.70;;
21837;SDS011;11081;45.946;6.140;2023-07-20T11:01:48;3.58;;;2.50;;
21837;SDS011;11081;45.946;6.140;2023-07-20T11:04:17;4.00;;;2.67;;
21837;SDS011;11081;45.946;6.140;2023-07-20T11:06:45;4.03;;;2.60;;
21837;SDS011;11081;45.946;6.140;2023-07-20T11:09:22;4.93;;;2.75;;
21837;SDS011;11081;45.946;6.140;2023-07-20T11:11:54;3.83;;;2.30;;
21837;SDS011;11081;45.946;6.140;2023-07-20T11:14:39;5.18;;;2.78;;
21837;SDS011;11081;45.946;6.140;2023-07-20T11:17:12;4.22;;;2.47;;
21837;SDS011;11081;45.946;6.140;2023-07-20T11:19:42;6.22;;;3.13;;
21837;SDS011;11081;45.946;6.140;2023-07-20T11:22:13;4.00;;;2.42;;
21837;SDS011;11081;45.946;6.140;2023-07-20T11:24:44;4.63;;;2.47;;
21837;SDS011;11081;45.946;6.140;2023-07-20T11:27:12;2.80;;;2.28;;
21837;SDS011;11081;45.946;6.140;2023-07-20T11:29:40;5.47;;;2.83;;
21837;SDS011;11081;45.946;6.140;2023-07-20T11:32:09;4.40;;;2.33;;
21837;SDS011;11081;45.946;6.140;2023-07-20T11:34:40;7.93;;;2.60;;
21837;SDS011;11081;45.946;6.140;2023-07-20T11:37:08;4.75;;;2.47;;
21837;SDS011;11081;45.946;6.140;2023-07-20T11:39:37;4.18;;;2.20;;
21837;SDS011;11081;45.946;6.140;2023-07-20T11:42:06;5.00;;;2.28;;
21837;SDS011;11081;45.946;6.140;2023-07-20T11:44:34;4.00;;;2.35;;
21837;SDS011;11081;45.946;6.140;2023-07-20T11:47:03;4.43;;;2.33;;
21837;SDS011;11081;45.946;6.140;2023-07-20T11:49:34;3.60;;;2.70;;
21837;SDS011;11081;45.946;6.140;2023-07-20T11:52:06;6.63;;;2.58;;
21837;SDS011;11081;45.946;6.140;2023-07-20T11:54:35;6.88;;;2.33;;
21837;SDS011;11081;45.946;6.140;2023-07-20T11:57:04;3.95;;;2.50;;
21837;SDS011;11081;45.946;6.140;2023-07-20T11:59:33;6.45;;;2.67;;
21837;SDS011;11081;45.946;6.140;2023-07-20T12:02:01;5.47;;;2.35;;
21837;SDS011;11081;45.946;6.140;2023-07-20T12:04:30;4.50;;;2.50;;
21837;SDS011;11081;45.946;6.140;2023-07-20T12:06:59;12.63;;;2.80;;
21837;SDS011;11081;45.946;6.140;2023-07-20T12:09:29;4.72;;;1.98;;
21837;SDS011;11081;45.946;6.140;2023-07-20T12:12:15;3.63;;;2.15;;
21837;SDS011;11081;45.946;6.140;2023-07-20T12:14:43;2.85;;;2.05;;
21837;SDS011;11081;45.946;6.140;2023-07-20T12:17:12;3.17;;;2.10;;
21837;SDS011;11081;45.946;6.140;2023-07-20T12:19:41;8.25;;;2.17;;
21837;SDS011;11081;45.946;6.140;2023-07-20T12:22:09;6.53;;;2.08;;
21837;SDS011;11081;45.946;6.140;2023-07-20T12:24:39;3.42;;;2.20;;
21837;SDS011;11081;45.946;6.140;2023-07-20T12:27:07;3.80;;;2.05;;
21837;SDS011;11081;45.946;6.140;2023-07-20T12:29:35;4.85;;;2.05;;
21837;SDS011;11081;45.946;6.140;2023-07-20T12:32:04;3.17;;;1.92;;
21837;SDS011;11081;45.946;6.140;2023-07-20T12:34:33;4.45;;;2.20;;
21837;SDS011;11081;45.946;6.140;2023-07-20T12:37:02;4.53;;;2.05;;
21837;SDS011;11081;45.946;6.140;2023-07-20T12:39:31;9.43;;;2.13;;
21837;SDS011;11081;45.946;6.140;2023-07-20T12:42:00;3.58;;;1.90;;
21837;SDS011;11081;45.946;6.140;2023-07-20T12:44:29;3.25;;;1.80;;
21837;SDS011;11081;45.946;6.140;2023-07-20T12:46:56;4.25;;;1.60;;
21837;SDS011;11081;45.946;6.140;2023-07-20T12:49:24;3.13;;;1.85;;
21837;SDS011;11081;45.946;6.140;2023-07-20T12:51:52;3.55;;;1.27;;
21837;SDS011;11081;45.946;6.140;2023-07-20T12:54:20;2.42;;;1.30;;
21837;SDS011;11081;45.946;6.140;2023-07-20T12:56:48;2.78;;;1.88;;
21837;SDS011;11081;45.946;6.140;2023-07-20T12:59:21;5.63;;;2.03;;
21837;SDS011;11081;45.946;6.140;2023-07-20T13:01:49;3.58;;;1.40;;
21837;SDS011;11081;45.946;6.140;2023-07-20T13:04:17;1.88;;;1.38;;
21837;SDS011;11081;45.946;6.140;2023-07-20T13:06:45;4.45;;;1.75;;
21837;SDS011;11081;45.946;6.140;2023-07-20T13:09:13;4.35;;;1.48;;
21837;SDS011;11081;45.946;6.140;2023-07-20T13:11:41;2.97;;;1.73;;
21837;SDS011;11081;45.946;6.140;2023-07-20T13:14:09;3.35;;;1.88;;
21837;SDS011;11081;45.946;6.140;2023-07-20T13:16:39;12.02;;;1.92;;
21837;SDS011;11081;45.946;6.140;2023-07-20T13:19:07;2.67;;;1.75;;
21837;SDS011;11081;45.946;6.140;2023-07-20T13:21:35;4.10;;;1.58;;
21837;SDS011;11081;45.946;6.140;2023-07-20T13:24:04;4.70;;;1.70;;
21837;SDS011;11081;45.946;6.140;2023-07-20T13:26:33;3.22;;;1.55;;
21837;SDS011;11081;45.946;6.140;2023-07-20T13:29:02;2.05;;;1.40;;
21837;SDS011;11081;45.946;6.140;2023-07-20T13:31:30;8.80;;;1.95;;
21837;SDS011;11081;45.946;6.140;2023-07-20T13:34:02;4.45;;;1.83;;
21837;SDS011;11081;45.946;6.140;2023-07-20T13:36:33;4.45;;;1.67;;
21837;SDS011;11081;45.946;6.140;2023-07-20T13:39:02;3.58;;;1.15;;
21837;SDS011;11081;45.946;6.140;2023-07-20T13:41:31;2.58;;;1.42;;
21837;SDS011;11081;45.946;6.140;2023-07-20T13:44:01;2.63;;;1.58;;
21837;SDS011;11081;45.946;6.140;2023-07-20T13:46:31;6.88;;;1.40;;
21837;SDS011;11081;45.946;6.140;2023-07-20T13:49:04;8.13;;;1.55;;
21837;SDS011;11081;45.946;6.140;2023-07-20T13:51:39;2.65;;;1.80;;
21837;SDS011;11081;45.946;6.140;2023-07-20T13:54:07;2.25;;;1.50;;
21837;SDS011;11081;45.946;6.140;2023-07-20T13:56:39;5.95;;;1.77;;
21837;SDS011;11081;45.946;6.140;2023-07-20T13:59:08;6.70;;;1.92;;
21837;SDS011;11081;45.946;6.140;2023-07-20T14:01:36;5.65;;;2.15;;
21837;SDS011;11081;45.946;6.140;2023-07-20T14:04:06;3.92;;;1.95;;
21837;SDS011;11081;45.946;6.140;2023-07-20T14:06:36;6.50;;;2.22;;
21837;SDS011;11081;45.946;6.140;2023-07-20T14:09:04;7.57;;;2.22;;
21837;SDS011;11081;45.946;6.140;2023-07-20T14:11:32;3.42;;;2.30;;
21837;SDS011;11081;45.946;6.140;2023-07-20T14:14:03;5.85;;;1.75;;
21837;SDS011;11081;45.946;6.140;2023-07-20T14:16:30;3.60;;;2.50;;
21837;SDS011;11081;45.946;6.140;2023-07-20T14:18:59;4.63;;;1.70;;
21837;SDS011;11081;45.946;6.140;2023-07-20T14:21:32;5.50;;;2.10;;
21837;SDS011;11081;45.946;6.140;2023-07-20T14:24:00;7.03;;;2.05;;
21837;SDS011;11081;45.946;6.140;2023-07-20T14:26:28;9.80;;;2.00;;
21837;SDS011;11081;45.946;6.140;2023-07-20T14:28:59;4.03;;;2.08;;
21837;SDS011;11081;45.946;6.140;2023-07-20T14:31:28;4.07;;;2.13;;
21837;SDS011;11081;45.946;6.140;2023-07-20T14:33:58;3.47;;;1.70;;
21837;SDS011;11081;45.946;6.140;2023-07-20T14:36:26;2.40;;;1.50;;
21837;SDS011;11081;45.946;6.140;2023-07-20T14:38:56;3.65;;;2.05;;
21837;SDS011;11081;45.946;6.140;2023-07-20T14:41:24;6.55;;;2.08;;
21837;SDS011;11081;45.946;6.140;2023-07-20T14:43:52;4.28;;;1.88;;
21837;SDS011;11081;45.946;6.140;2023-07-20T14:46:20;2.90;;;1.55;;
21837;SDS011;11081;45.946;6.140;2023-07-20T14:48:48;3.58;;;1.92;;
21837;SDS011;11081;45.946;6.140;2023-07-20T14:51:18;3.75;;;1.90;;
21837;SDS011;11081;45.946;6.140;2023-07-20T14:53:46;2.03;;;1.45;;
21837;SDS011;11081;45.946;6.140;2023-07-20T14:56:15;2.92;;;1.80;;
21837;SDS011;11081;45.946;6.140;2023-07-20T14:58:43;3.60;;;2.03;;
21837;SDS011;11081;45.946;6.140;2023-07-20T15:01:11;4.00;;;1.50;;